Time;durP1;ratioP1;P1;durP2;ratioP2;P2;SDS_P1;SDS_P2;PMS_P1;PMS_P2;Temp;Humidity;BMP_temperature;BMP_pressure;BME280_temperature;BME280_humidity;BME280_pressure;Samples;Min_cycle;Max_cycle;Signal;HPM_P1;HPM_P2
2021/05/01 00:00:48;;;;;;;10.57;9.53;;;9.10;99.90;;;;;;5112883;28;20742;-60
2021/05/01 00:03:16;;;;;;;9.90;8.90;;;9.10;99.90;;;;;;5112681;28;20199;-61
2021/05/01 00:05:43;;;;;;;10.43;9.13;;;9.00;99.90;;;;;;5112748;28;20316;-61
2021/05/01 00:08:10;;;;;;;9.93;8.93;;;9.00;99.90;;;;;;5112758;28;20287;-59
2021/05/01 00:10:36;;;;;;;10.07;9.07;;;9.00;99.90;;;;;;5112597;28;20730;-61
2021/05/01 00:13:03;;;;;;;9.97;8.97;;;8.90;99.90;;;;;;5112783;28;20205;-61
2021/05/01 00:15:30;;;;;;;10.00;9.03;;;9.00;99.90;;;;;;5112847;28;20310;-59
2021/05/01 00:17:57;;;;;;;9.73;8.73;;;9.00;99.90;;;;;;5116605;28;20257;-60
2021/05/01 00:20:25;;;;;;;9.93;8.93;;;9.00;99.90;;;;;;5116677;28;20666;-59
2021/05/01 00:22:51;;;;;;;10.30;9.17;;;9.10;99.90;;;;;;5116647;28;20195;-60
2021/05/01 00:25:18;;;;;;;9.33;8.43;;;9.10;99.90;;;;;;5116247;28;20261;-60
2021/05/01 00:27:45;;;;;;;10.20;9.20;;;9.00;99.90;;;;;;5116438;28;20202;-60
2021/05/01 00:30:12;;;;;;;9.63;8.63;;;9.00;99.90;;;;;;5116569;28;20195;-60
2021/05/01 00:32:39;;;;;;;10.37;9.27;;;8.90;99.90;;;;;;5102822;28;20639;-60
2021/05/01 00:35:07;;;;;;;9.77;8.70;;;8.90;99.90;;;;;;5095776;28;20203;-60
2021/05/01 00:37:35;;;;;;;9.37;8.47;;;9.00;99.90;;;;;;5095788;28;20226;-60
2021/05/01 00:40:03;;;;;;;9.90;8.90;;;8.90;99.90;;;;;;5095569;28;20667;-60
2021/05/01 00:42:30;;;;;;;10.40;9.30;;;8.80;99.90;;;;;;5095906;28;20200;-60
2021/05/01 00:44:57;;;;;;;10.33;9.17;;;8.80;99.90;;;;;;5095879;28;20220;-60
2021/05/01 00:47:24;;;;;;;10.03;9.00;;;8.90;99.90;;;;;;5095752;28;20200;-60
2021/05/01 00:49:51;;;;;;;10.90;9.70;;;8.90;99.90;;;;;;5095477;28;20196;-60
2021/05/01 00:52:18;;;;;;;10.30;9.30;;;8.90;99.90;;;;;;5095357;28;20196;-59
2021/05/01 00:54:46;;;;;;;10.43;9.40;;;8.90;99.90;;;;;;5095609;28;20603;-60
2021/05/01 00:57:13;;;;;;;10.67;9.67;;;8.90;99.90;;;;;;5095283;28;20841;-61
2021/05/01 00:59:40;;;;;;;9.80;8.80;;;8.90;99.90;;;;;;5095142;28;20204;-61
2021/05/01 01:02:08;;;;;;;9.87;8.90;;;8.90;99.90;;;;;;5095100;28;20290;-59
2021/05/01 01:04:35;;;;;;;10.63;9.27;;;8.90;99.90;;;;;;5094973;28;20767;-60
2021/05/01 01:07:02;;;;;;;9.97;8.90;;;8.80;99.90;;;;;;5095483;28;20196;-60
2021/05/01 01:09:30;;;;;;;9.43;8.47;;;8.90;99.90;;;;;;5095304;28;20209;-59
2021/05/01 01:11:58;;;;;;;10.67;9.67;;;8.80;99.90;;;;;;5095412;28;20204;-60
2021/05/01 01:14:25;;;;;;;9.67;8.77;;;8.80;99.90;;;;;;5094763;28;20783;-60
2021/05/01 01:16:52;;;;;;;10.97;9.77;;;8.90;99.90;;;;;;5095301;28;20188;-60
2021/05/01 01:19:20;;;;;;;9.70;8.80;;;8.80;99.90;;;;;;5095015;28;20200;-59
2021/05/01 01:21:49;;;;;;;10.83;9.73;;;8.90;99.90;;;;;;5095180;28;20286;-60
2021/05/01 01:24:18;;;;;;;10.17;9.17;;;8.90;99.90;;;;;;5094665;28;20717;-60
2021/05/01 01:26:45;;;;;;;11.20;9.83;;;8.80;99.90;;;;;;5094202;28;20267;-61
2021/05/01 01:29:14;;;;;;;10.07;9.03;;;8.90;99.90;;;;;;5095224;28;20207;-59
2021/05/01 01:31:42;;;;;;;10.80;9.70;;;8.80;99.90;;;;;;5099950;28;20651;-62
2021/05/01 01:34:09;;;;;;;10.23;9.20;;;8.70;99.90;;;;;;5115272;28;20199;-60
2021/05/01 01:36:35;;;;;;;11.20;10.07;;;8.70;99.90;;;;;;5115274;28;20568;-59
2021/05/01 01:39:03;;;;;;;10.67;9.57;;;8.70;99.90;;;;;;5118122;28;20286;-60
2021/05/01 01:41:31;;;;;;;11.00;9.90;;;8.70;99.90;;;;;;5120351;28;20195;-60
2021/05/01 01:43:58;;;;;;;11.20;9.93;;;8.70;99.90;;;;;;5118559;28;20298;-60
2021/05/01 01:46:25;;;;;;;11.07;9.97;;;8.70;99.90;;;;;;5115003;28;20298;-60
2021/05/01 01:48:52;;;;;;;11.47;10.20;;;8.60;99.90;;;;;;5114525;28;20199;-60
2021/05/01 01:51:19;;;;;;;10.37;9.27;;;8.60;99.90;;;;;;5115020;28;20286;-60
2021/05/01 01:53:46;;;;;;;10.87;9.77;;;8.60;99.90;;;;;;5114774;28;20238;-60
2021/05/01 01:56:13;;;;;;;11.37;10.17;;;8.70;99.90;;;;;;5114790;28;20270;-61
2021/05/01 01:58:41;;;;;;;12.80;10.17;;;8.60;99.90;;;;;;5114865;28;20199;-61
2021/05/01 02:01:09;;;;;;;11.10;10.00;;;8.50;99.90;;;;;;5114568;28;20204;-60
2021/05/01 02:03:37;;;;;;;11.23;10.13;;;8.50;99.90;;;;;;5114601;28;20282;-59
2021/05/01 02:06:05;;;;;;;10.97;9.67;;;8.40;99.90;;;;;;5114555;28;20215;-60
2021/05/01 02:08:32;;;;;;;11.43;10.23;;;8.30;99.90;;;;;;5114475;28;20196;-61
2021/05/01 02:10:58;;;;;;;11.17;9.87;;;8.20;99.90;;;;;;5114533;28;20325;-60
2021/05/01 02:13:25;;;;;;;11.03;9.93;;;8.10;99.90;;;;;;5114471;28;20271;-60
2021/05/01 02:15:53;;;;;;;10.57;9.50;;;8.00;99.90;;;;;;5114107;28;20754;-61
2021/05/01 02:18:20;;;;;;;10.87;9.77;;;7.90;99.90;;;;;;5114317;28;20290;-60
2021/05/01 02:20:47;;;;;;;11.00;9.90;;;7.90;99.90;;;;;;5114054;28;20202;-60
2021/05/01 02:23:14;;;;;;;11.50;10.10;;;7.90;99.90;;;;;;5113932;28;20294;-60
2021/05/01 02:25:40;;;;;;;11.33;10.13;;;7.90;99.90;;;;;;5113797;28;20353;-60
2021/05/01 02:28:07;;;;;;;11.77;10.30;;;7.90;99.90;;;;;;5114112;28;20294;-60
2021/05/01 02:30:34;;;;;;;12.07;10.57;;;8.00;99.90;;;;;;5114150;28;20210;-60
2021/05/01 02:33:02;;;;;;;11.80;10.70;;;7.90;99.90;;;;;;5097368;28;20261;-61
2021/05/01 02:35:31;;;;;;;11.60;10.17;;;8.00;99.90;;;;;;5093706;28;20607;-61
2021/05/01 02:37:59;;;;;;;14.03;10.70;;;8.10;99.90;;;;;;5093109;28;20227;-60
2021/05/01 02:40:30;;;;;;;10.57;9.57;;;8.10;99.90;;;;;;5092882;28;20227;-60
2021/05/01 02:42:57;;;;;;;12.00;10.67;;;8.10;99.90;;;;;;5093398;28;20746;-60
2021/05/01 02:45:25;;;;;;;11.90;10.17;;;8.10;99.90;;;;;;5093107;28;20247;-60
2021/05/01 02:47:51;;;;;;;11.73;10.30;;;8.20;99.90;;;;;;5093405;28;20308;-60
2021/05/01 02:50:19;;;;;;;11.07;9.97;;;8.20;99.90;;;;;;5093177;28;20200;-60
2021/05/01 02:52:46;;;;;;;12.07;10.80;;;8.10;99.90;;;;;;5093247;28;20234;-61
2021/05/01 02:55:14;;;;;;;11.23;10.13;;;8.20;99.90;;;;;;5093271;28;20202;-60
2021/05/01 02:57:41;;;;;;;11.20;10.00;;;8.20;99.90;;;;;;5093468;28;20200;-61
2021/05/01 03:00:11;;;;;;;11.13;10.03;;;8.30;99.90;;;;;;5093370;28;20878;-60
2021/05/01 03:02:38;;;;;;;11.40;10.20;;;8.30;99.90;;;;;;5092884;28;20694;-59
2021/05/01 03:05:07;;;;;;;11.20;9.93;;;8.30;99.90;;;;;;5092872;28;20327;-60
2021/05/01 03:07:35;;;;;;;11.63;10.43;;;8.30;99.90;;;;;;5093119;28;20290;-60
2021/05/01 03:10:03;;;;;;;10.80;9.70;;;8.30;99.90;;;;;;5093042;28;20206;-61
2021/05/01 03:12:30;;;;;;;11.40;10.30;;;8.30;99.90;;;;;;5092846;28;20646;-60
2021/05/01 03:14:57;;;;;;;11.60;10.40;;;8.30;99.90;;;;;;5092723;28;20319;-60
2021/05/01 03:17:24;;;;;;;11.73;9.73;;;8.30;99.90;;;;;;5093069;28;20303;-61
2021/05/01 03:19:51;;;;;;;11.20;10.00;;;8.30;99.90;;;;;;5092521;28;20716;-61
2021/05/01 03:22:18;;;;;;;10.93;9.83;;;8.40;99.90;;;;;;5093079;28;20283;-60
2021/05/01 03:24:45;;;;;;;11.23;10.13;;;8.30;99.90;;;;;;5092754;28;20216;-60
2021/05/01 03:27:12;;;;;;;11.17;9.77;;;8.30;99.90;;;;;;5092946;28;20200;-60
2021/05/01 03:29:39;;;;;;;11.20;10.03;;;8.30;99.90;;;;;;5092816;28;20225;-61
2021/05/01 03:32:06;;;;;;;11.37;10.27;;;8.40;99.90;;;;;;5101576;28;20287;-60
2021/05/01 03:34:33;;;;;;;12.10;10.50;;;8.40;99.90;;;;;;5113048;28;20201;-60
2021/05/01 03:37:00;;;;;;;11.47;10.00;;;8.30;99.90;;;;;;5113330;28;20633;-61
2021/05/01 03:39:27;;;;;;;11.23;9.87;;;8.40;99.90;;;;;;5112790;28;20262;-60
2021/05/01 03:41:59;;;;;;;12.10;10.30;;;8.40;99.90;;;;;;5113159;28;20206;-60
2021/05/01 03:44:26;;;;;;;11.10;9.87;;;8.40;99.90;;;;;;5112727;28;20294;-60
2021/05/01 03:46:53;;;;;;;11.23;10.10;;;8.40;99.90;;;;;;5113089;28;20206;-60
2021/05/01 03:49:20;;;;;;;10.53;9.43;;;8.40;99.90;;;;;;5113235;28;20310;-60
2021/05/01 03:51:47;;;;;;;12.47;10.37;;;8.40;99.90;;;;;;5116942;28;20203;-60
2021/05/01 03:54:14;;;;;;;12.20;10.90;;;8.40;99.90;;;;;;5116965;28;20207;-61
2021/05/01 03:56:41;;;;;;;11.83;10.37;;;8.40;99.90;;;;;;5116902;28;20652;-61
2021/05/01 03:59:09;;;;;;;11.90;10.60;;;8.40;99.90;;;;;;5117136;28;20199;-59
2021/05/01 04:01:36;;;;;;;11.63;10.43;;;8.40;99.90;;;;;;5117076;28;20290;-60
2021/05/01 04:04:03;;;;;;;10.87;9.77;;;8.40;99.90;;;;;;5116868;28;20282;-60
2021/05/01 04:06:30;;;;;;;11.43;10.23;;;8.40;99.90;;;;;;5116607;28;20737;-60
2021/05/01 04:08:57;;;;;;;11.30;10.07;;;8.40;99.90;;;;;;5116601;28;20552;-60
2021/05/01 04:11:24;;;;;;;12.40;11.10;;;8.30;99.90;;;;;;5116499;28;20647;-60
2021/05/01 04:13:51;;;;;;;11.07;9.90;;;8.30;99.90;;;;;;5117187;28;20203;-60
2021/05/01 04:16:19;;;;;;;11.70;10.50;;;8.40;99.90;;;;;;5116613;28;20745;-61
2021/05/01 04:18:47;;;;;;;11.63;10.47;;;8.40;99.90;;;;;;5116622;28;20290;-60
2021/05/01 04:21:14;;;;;;;11.30;10.10;;;8.40;99.90;;;;;;5116704;28;20230;-60
2021/05/01 04:23:41;;;;;;;13.20;10.30;;;8.40;99.90;;;;;;5116647;28;20196;-60
2021/05/01 04:26:08;;;;;;;11.87;10.00;;;8.40;99.90;;;;;;5116590;28;20250;-59
2021/05/01 04:28:35;;;;;;;12.63;10.30;;;8.50;99.90;;;;;;5116597;28;20256;-60
2021/05/01 04:31:02;;;;;;;12.37;11.07;;;8.50;99.90;;;;;;5116485;28;20651;-60
2021/05/01 04:33:30;;;;;;;12.17;10.47;;;8.50;99.90;;;;;;5095964;28;20196;-60
2021/05/01 04:35:57;;;;;;;11.13;10.03;;;8.50;99.90;;;;;;5096138;28;20192;-61
2021/05/01 04:38:25;;;;;;;11.23;10.13;;;8.60;99.90;;;;;;5095684;28;20573;-59
2021/05/01 04:40:52;;;;;;;10.87;9.77;;;8.70;99.90;;;;;;5095581;28;20648;-59
2021/05/01 04:43:23;;;;;;;11.67;9.93;;;8.80;99.90;;;;;;5096101;28;20340;-60
2021/05/01 04:45:50;;;;;;;11.27;9.90;;;8.80;99.90;;;;;;5095702;28;20254;-59
2021/05/01 04:48:17;;;;;;;11.70;10.50;;;8.80;99.90;;;;;;5095527;28;20200;-61
2021/05/01 04:50:48;;;;;;;11.50;10.33;;;8.80;99.90;;;;;;5095503;28;20215;-61
2021/05/01 04:53:15;;;;;;;12.37;11.13;;;8.80;99.90;;;;;;5095952;28;20280;-60
2021/05/01 04:55:42;;;;;;;12.53;10.47;;;8.80;99.90;;;;;;5095181;28;20549;-62
2021/05/01 04:58:09;;;;;;;11.57;10.37;;;8.80;99.90;;;;;;5095264;28;20231;-60
2021/05/01 05:00:36;;;;;;;11.50;10.30;;;9.00;99.90;;;;;;5095503;28;20200;-61
2021/05/01 05:03:03;;;;;;;11.30;10.20;;;9.10;99.90;;;;;;5094392;28;20235;-61
2021/05/01 05:05:30;;;;;;;11.90;10.70;;;9.10;99.90;;;;;;5095422;28;20251;-61
2021/05/01 05:07:58;;;;;;;12.13;10.53;;;9.20;99.90;;;;;;5095352;28;20200;-61
2021/05/01 05:10:25;;;;;;;11.77;10.57;;;9.10;99.90;;;;;;5094904;28;20196;-61
2021/05/01 05:12:52;;;;;;;12.00;10.80;;;9.20;99.90;;;;;;5094952;28;20680;-61
2021/05/01 05:15:19;;;;;;;12.97;10.33;;;9.20;99.90;;;;;;5094870;28;20231;-61
2021/05/01 05:17:46;;;;;;;10.23;9.23;;;9.40;99.90;;;;;;5095035;28;20204;-61
2021/05/01 05:20:13;;;;;;;11.40;10.20;;;9.40;99.90;;;;;;5094920;28;20200;-56
2021/05/01 05:22:40;;;;;;;11.67;10.43;;;9.40;99.90;;;;;;5094681;28;20206;-55
2021/05/01 05:25:08;;;;;;;13.23;10.83;;;9.50;99.90;;;;;;5094922;28;20315;-53
2021/05/01 05:27:35;;;;;;;11.50;10.30;;;9.50;99.90;;;;;;5094847;28;20207;-52
2021/05/01 05:30:03;;;;;;;10.63;9.57;;;9.60;99.90;;;;;;5094929;28;20389;-54
2021/05/01 05:32:30;;;;;;;11.23;10.00;;;9.70;99.90;;;;;;5094659;28;20291;-54
2021/05/01 05:34:57;;;;;;;11.40;10.20;;;9.70;99.90;;;;;;5094803;28;20230;-53
2021/05/01 05:37:23;;;;;;;11.77;10.50;;;9.60;99.90;;;;;;5094736;28;20202;-55
2021/05/01 05:39:51;;;;;;;11.60;10.40;;;9.60;99.90;;;;;;5094656;28;20697;-57
2021/05/01 05:42:20;;;;;;;14.90;10.13;;;9.60;99.90;;;;;;5094763;28;20196;-56
2021/05/01 05:44:49;;;;;;;11.90;10.70;;;9.70;99.90;;;;;;5094378;28;20649;-54
2021/05/01 05:47:17;;;;;;;11.83;10.73;;;9.70;99.90;;;;;;5094235;28;20206;-55
2021/05/01 05:49:44;;;;;;;11.93;10.73;;;9.80;99.90;;;;;;5094373;28;20200;-56
2021/05/01 05:52:12;;;;;;;10.90;9.73;;;9.90;99.90;;;;;;5094162;28;20235;-55
2021/05/01 05:54:39;;;;;;;11.77;10.57;;;10.00;99.90;;;;;;5094171;28;20299;-51
2021/05/01 05:57:08;;;;;;;11.60;10.17;;;10.10;99.90;;;;;;5094356;28;20208;-55
2021/05/01 05:59:37;;;;;;;13.07;11.27;;;10.00;99.90;;;;;;5094567;28;20257;-53
2021/05/01 06:02:05;;;;;;;11.23;9.97;;;10.10;99.90;;;;;;5094095;28;20299;-56
2021/05/01 06:04:35;;;;;;;10.93;9.83;;;10.40;99.90;;;;;;5093569;28;20200;-56
2021/05/01 06:07:10;;;;;;;11.03;9.97;;;10.70;99.90;;;;;;5094275;28;20298;-54
2021/05/01 06:09:39;;;;;;;11.53;10.03;;;10.90;99.90;;;;;;5094291;28;20184;-55
2021/05/01 06:12:09;;;;;;;11.37;10.07;;;10.90;99.90;;;;;;5093860;28;20199;-56
2021/05/01 06:14:43;;;;;;;10.77;9.73;;;11.00;99.90;;;;;;5093640;28;20314;-52
2021/05/01 06:17:11;;;;;;;11.10;10.00;;;11.30;99.90;;;;;;5093837;28;20186;-54
2021/05/01 06:19:40;;;;;;;12.03;10.70;;;11.30;99.90;;;;;;5093135;28;20244;-54
2021/05/01 06:22:07;;;;;;;11.00;9.90;;;11.50;99.90;;;;;;5093366;28;20683;-54
2021/05/01 06:24:34;;;;;;;11.37;10.17;;;11.70;99.90;;;;;;5093486;28;20204;-57
2021/05/01 06:27:01;;;;;;;11.97;10.80;;;11.80;99.90;;;;;;5094008;28;20235;-56
2021/05/01 06:29:30;;;;;;;12.67;11.10;;;12.10;99.90;;;;;;5093364;28;20303;-54
2021/05/01 06:31:59;;;;;;;14.67;12.23;;;12.20;99.90;;;;;;5100554;28;20199;-55
2021/05/01 06:34:27;;;;;;;12.77;11.13;;;12.20;99.90;;;;;;5113647;28;20227;-54
2021/05/01 06:36:54;;;;;;;14.20;11.87;;;12.30;99.90;;;;;;5114189;28;20209;-55
2021/05/01 06:39:24;;;;;;;14.93;12.30;;;12.50;99.90;;;;;;5113889;28;20199;-56
2021/05/01 06:41:55;;;;;;;12.53;11.23;;;12.60;99.90;;;;;;5113993;28;20229;-53
2021/05/01 06:44:38;;;;;;;12.53;11.20;;;12.50;99.90;;;;;;5113936;28;20566;-55
2021/05/01 06:47:09;;;;;;;12.63;11.33;;;12.80;99.90;;;;;;5113818;28;20175;-55
2021/05/01 06:49:46;;;;;;;14.73;11.53;;;13.00;99.90;;;;;;5113563;28;20183;-55
2021/05/01 06:52:13;;;;;;;11.63;10.50;;;13.10;99.90;;;;;;5113600;28;20207;-54
2021/05/01 06:54:41;;;;;;;12.33;10.47;;;13.20;99.90;;;;;;5113267;28;20202;-56
2021/05/01 06:57:08;;;;;;;11.90;10.63;;;13.30;99.90;;;;;;5113604;28;20203;-54
2021/05/01 06:59:36;;;;;;;12.30;11.10;;;13.30;99.90;;;;;;5112921;28;20687;-56
2021/05/01 07:02:03;;;;;;;13.30;11.17;;;13.30;99.90;;;;;;5113359;28;20227;-55
2021/05/01 07:04:51;;;;;;;14.20;11.40;;;13.40;99.90;;;;;;5110252;28;20651;-53
2021/05/01 07:07:20;;;;;;;12.97;11.57;;;13.80;99.90;;;;;;5111421;28;20290;-55
2021/05/01 07:09:48;;;;;;;12.47;11.17;;;13.90;99.90;;;;;;5113085;28;20203;-53
2021/05/01 07:12:14;;;;;;;15.67;12.37;;;13.70;99.90;;;;;;5112814;28;20213;-55
2021/05/01 07:14:41;;;;;;;12.18;10.98;;;13.70;99.90;;;;;;5113031;28;20223;-56
2021/05/01 07:17:08;;;;;;;11.30;10.20;;;13.50;99.90;;;;;;5113264;28;20179;-56
2021/05/01 07:19:37;;;;;;;12.30;11.00;;;13.40;99.90;;;;;;5112365;28;20199;-53
2021/05/01 07:22:05;;;;;;;11.57;10.48;;;13.40;99.90;;;;;;5113115;28;20204;-55
2021/05/01 07:24:32;;;;;;;12.23;11.03;;;13.50;99.90;;;;;;5112513;28;20199;-53
2021/05/01 07:27:00;;;;;;;12.05;10.85;;;13.50;99.90;;;;;;5112611;28;20684;-55
2021/05/01 07:29:28;;;;;;;12.60;11.30;;;13.40;99.90;;;;;;5112695;28;20838;-52
2021/05/01 07:31:57;;;;;;;12.17;10.97;;;13.10;99.90;;;;;;5112883;28;20290;-56
2021/05/01 07:34:26;;;;;;;12.50;11.30;;;12.90;99.90;;;;;;5112610;28;20222;-55
2021/05/01 07:36:55;;;;;;;12.35;11.13;;;12.90;99.90;;;;;;5112824;28;20290;-55
2021/05/01 07:39:24;;;;;;;11.37;10.20;;;13.00;99.90;;;;;;5112755;28;20206;-56
2021/05/01 07:41:57;;;;;;;10.90;9.80;;;13.00;99.90;;;;;;5112865;28;20205;-54
2021/05/01 07:44:25;;;;;;;10.60;9.60;;;13.10;99.90;;;;;;5113159;28;20188;-54
2021/05/01 07:46:53;;;;;;;11.00;9.90;;;13.20;99.90;;;;;;5112662;28;20229;-54
2021/05/01 07:49:21;;;;;;;10.77;9.67;;;13.30;99.90;;;;;;5112373;28;20241;-55
2021/05/01 07:51:47;;;;;;;9.60;8.60;;;13.20;99.90;;;;;;5112843;28;20203;-55
2021/05/01 07:54:14;;;;;;;10.07;9.07;;;13.00;99.90;;;;;;5112453;28;20238;-57
2021/05/01 07:56:42;;;;;;;11.63;10.43;;;12.80;99.90;;;;;;5112681;28;20282;-57
2021/05/01 07:59:10;;;;;;;10.07;9.07;;;12.70;99.90;;;;;;5112744;28;20210;-53
2021/05/01 08:01:37;;;;;;;10.67;9.57;;;12.60;99.90;;;;;;5112327;28;20294;-56
2021/05/01 08:04:04;;;;;;;10.50;9.40;;;12.60;99.90;;;;;;5112582;28;20203;-55
2021/05/01 08:06:31;;;;;;;12.20;9.23;;;12.60;99.90;;;;;;5097877;28;20276;-56
2021/05/01 08:08:58;;;;;;;10.90;9.77;;;12.70;99.90;;;;;;5112323;28;20264;-57
2021/05/01 08:11:25;;;;;;;10.60;9.50;;;13.00;99.90;;;;;;5112417;28;20302;-56
2021/05/01 08:13:53;;;;;;;11.43;9.57;;;13.30;99.90;;;;;;5112445;28;20202;-56
2021/05/01 08:16:19;;;;;;;10.48;9.13;;;13.50;99.90;;;;;;5112400;28;20227;-57
2021/05/01 08:18:46;;;;;;;10.45;9.35;;;13.80;99.90;;;;;;5112567;28;20199;-57
2021/05/01 08:21:13;;;;;;;10.43;9.40;;;13.70;99.90;;;;;;5112010;28;20695;-54
2021/05/01 08:23:40;;;;;;;10.00;8.93;;;13.60;99.90;;;;;;5112198;28;20242;-56
2021/05/01 08:26:08;;;;;;;11.00;9.90;;;13.50;99.90;;;;;;5111613;28;20231;-57
2021/05/01 08:28:35;;;;;;;9.70;8.73;;;13.70;99.90;;;;;;5106349;28;20299;-57
2021/05/01 08:31:03;;;;;;;10.13;9.13;;;13.90;99.90;;;;;;5112211;28;20221;-57
2021/05/01 08:33:31;;;;;;;10.25;9.10;;;14.10;99.90;;;;;;5092081;28;20200;-56
2021/05/01 08:35:59;;;;;;;10.43;9.32;;;14.30;99.90;;;;;;5092162;28;20223;-57
2021/05/01 08:38:27;;;;;;;9.98;8.98;;;14.30;99.90;;;;;;5102776;28;20199;-54
2021/05/01 08:40:53;;;;;;;10.02;8.98;;;14.20;99.90;;;;;;5107823;28;20604;-58
2021/05/01 08:43:21;;;;;;;9.88;8.88;;;14.10;99.90;;;;;;5099068;28;20286;-54
2021/05/01 08:45:49;;;;;;;10.17;9.27;;;14.20;99.90;;;;;;5115770;28;20215;-59
2021/05/01 08:48:16;;;;;;;9.20;8.30;;;14.20;99.90;;;;;;5105726;28;20312;-55
2021/05/01 08:50:47;;;;;;;10.63;9.63;;;14.40;99.90;;;;;;5095452;28;20569;-58
2021/05/01 08:53:14;;;;;;;9.25;8.38;;;14.70;99.90;;;;;;5095438;28;20191;-55
2021/05/01 08:55:41;;;;;;;10.35;9.35;;;15.00;99.90;;;;;;5095060;28;20214;-57
2021/05/01 08:58:10;;;;;;;9.15;8.25;;;15.30;99.90;;;;;;5094787;28;20204;-57
2021/05/01 09:00:39;;;;;;;9.65;8.80;;;15.20;99.90;;;;;;5095210;28;20314;-57
2021/05/01 09:03:08;;;;;;;9.65;8.40;;;15.50;99.90;;;;;;5095007;28;20204;-56
2021/05/01 09:05:37;;;;;;;8.95;8.15;;;15.70;99.90;;;;;;5094744;28;20220;-56
2021/05/01 09:08:06;;;;;;;9.90;8.90;;;16.00;99.90;;;;;;5095210;28;20204;-57
2021/05/01 09:10:45;;;;;;;9.50;8.60;;;16.00;99.90;;;;;;5094736;28;20224;-55
2021/05/01 09:13:18;;;;;;;9.50;8.60;;;16.10;99.90;;;;;;5098637;28;20637;-55
2021/05/01 09:16:02;;;;;;;8.98;8.18;;;16.00;99.90;;;;;;5115012;28;20314;-58
2021/05/01 09:18:44;;;;;;;10.18;9.25;;;15.60;99.90;;;;;;5114292;28;20313;-56
2021/05/01 09:21:16;;;;;;;8.60;7.72;;;15.50;99.90;;;;;;5115291;28;20190;-53
2021/05/01 09:23:44;;;;;;;9.40;8.60;;;15.70;99.90;;;;;;5115050;28;20217;-55
2021/05/01 09:26:11;;;;;;;8.35;7.55;;;16.10;99.90;;;;;;5114706;28;20250;-56
2021/05/01 09:28:40;;;;;;;8.00;7.30;;;16.60;99.90;;;;;;5115095;28;20210;-57
2021/05/01 09:31:10;;;;;;;8.93;7.90;;;17.00;99.90;;;;;;5114964;28;20195;-55
2021/05/01 09:33:39;;;;;;;7.25;6.65;;;17.30;99.90;;;;;;5114364;28;20256;-56
2021/05/01 09:36:12;;;;;;;8.57;7.78;;;17.10;99.90;;;;;;5114589;28;20223;-55
2021/05/01 09:38:43;;;;;;;8.63;7.68;;;17.20;99.90;;;;;;5114259;28;20274;-56
2021/05/01 09:41:15;;;;;;;7.82;7.13;;;17.00;99.90;;;;;;5114721;28;20185;-57
2021/05/01 09:44:11;;;;;;;8.55;7.72;;;17.00;99.90;;;;;;5114912;28;20274;-58
2021/05/01 09:46:46;;;;;;;8.82;8.02;;;16.70;99.90;;;;;;5089503;28;20226;-56
2021/05/01 09:49:15;;;;;;;8.60;7.80;;;16.50;99.90;;;;;;5094444;28;20302;-55
2021/05/01 09:51:53;;;;;;;9.10;8.23;;;16.20;99.90;;;;;;5093951;28;20200;-58
2021/05/01 09:54:25;;;;;;;11.75;10.48;;;16.20;99.90;;;;;;5093948;28;20200;-54
2021/05/01 09:56:53;;;;;;;10.45;9.45;;;15.80;99.90;;;;;;5094153;28;20191;-55
2021/05/01 09:59:21;;;;;;;9.02;8.13;;;15.80;99.90;;;;;;5093917;28;20866;-53
2021/05/01 10:01:59;;;;;;;10.07;9.15;;;15.90;99.90;;;;;;5094032;28;20294;-53
2021/05/01 10:04:27;;;;;;;9.35;8.55;;;15.70;99.90;;;;;;5093933;28;20294;-54
2021/05/01 10:07:04;;;;;;;9.25;8.35;;;15.50;99.90;;;;;;5093806;28;20208;-55
2021/05/01 10:09:35;;;;;;;8.75;7.95;;;15.40;99.90;;;;;;5093439;28;20205;-57
2021/05/01 10:12:04;;;;;;;9.13;8.23;;;15.60;99.90;;;;;;5093666;28;20697;-56
2021/05/01 10:14:37;;;;;;;8.68;7.95;;;15.90;99.90;;;;;;5093313;28;20224;-50
2021/05/01 10:17:05;;;;;;;9.38;8.48;;;16.20;99.90;;;;;;5094073;28;20284;-54
2021/05/01 10:19:47;;;;;;;8.43;7.63;;;16.50;99.90;;;;;;5093531;28;20204;-56
2021/05/01 10:22:26;;;;;;;7.82;7.13;;;16.60;99.90;;;;;;5093755;28;20207;-54
2021/05/01 10:24:54;;;;;;;9.10;8.30;;;16.90;99.90;;;;;;5095418;28;20188;-56
2021/05/01 10:27:22;;;;;;;9.10;8.20;;;17.50;99.90;;;;;;5105260;28;20227;-53
2021/05/01 10:30:14;;;;;;;8.93;8.13;;;17.90;99.90;;;;;;5111024;28;20249;-53
2021/05/01 10:32:43;;;;;;;8.85;8.10;;;17.90;99.90;;;;;;5102276;28;20228;-56
2021/05/01 10:35:11;;;;;;;9.40;8.50;;;17.90;99.90;;;;;;5104907;28;20658;-56
2021/05/01 10:37:47;;;;;;;8.25;7.45;;;17.80;99.90;;;;;;5113758;28;20201;-53
2021/05/01 10:40:15;;;;;;;9.88;8.98;;;17.90;99.90;;;;;;5095046;28;20283;-56
2021/05/01 10:42:42;;;;;;;8.82;8.02;;;18.10;99.90;;;;;;5093209;28;20721;-58
2021/05/01 10:45:10;;;;;;;9.05;8.25;;;18.20;99.90;;;;;;5093425;28;20298;-57
2021/05/01 10:47:37;;;;;;;9.77;8.85;;;18.30;99.90;;;;;;5092995;28;20261;-58
2021/05/01 10:50:20;;;;;;;9.20;8.40;;;18.30;99.90;;;;;;5092827;28;20535;-56
2021/05/01 10:52:49;;;;;;;9.63;8.73;;;18.00;99.90;;;;;;5092909;28;20200;-56
2021/05/01 10:55:17;;;;;;;9.90;9.00;;;18.00;99.90;;;;;;5092968;28;20238;-58
2021/05/01 10:57:56;;;;;;;9.73;8.80;;;17.90;99.90;;;;;;5093080;28;20212;-58
2021/05/01 11:00:24;;;;;;;9.30;8.48;;;17.70;99.90;;;;;;5092393;28;20270;-55
2021/05/01 11:02:59;;;;;;;8.35;7.63;;;17.70;99.90;;;;;;5092932;28;20208;-55
2021/05/01 11:05:31;;;;;;;9.48;8.48;;;17.50;99.90;;;;;;5107752;28;20198;-54
2021/05/01 11:08:07;;;;;;;8.70;7.97;;;17.40;99.90;;;;;;5112877;28;20275;-57
2021/05/01 11:10:35;;;;;;;9.88;8.98;;;17.50;99.90;;;;;;5112859;28;20676;-58
2021/05/01 11:13:04;;;;;;;10.40;9.40;;;17.50;99.90;;;;;;5113178;28;20207;-57
2021/05/01 11:15:45;;;;;;;9.75;8.93;;;17.40;99.90;;;;;;5112513;28;20719;-57
2021/05/01 11:18:19;;;;;;;10.20;9.25;;;17.30;99.90;;;;;;5112857;28;20275;-56
2021/05/01 11:20:46;;;;;;;10.45;9.52;;;17.00;99.90;;;;;;5113247;28;20282;-56
2021/05/01 11:23:15;;;;;;;9.57;8.68;;;16.50;99.90;;;;;;5113153;28;20385;-58
2021/05/01 11:25:43;;;;;;;10.32;9.32;;;16.30;99.90;;;;;;5112796;28;20213;-56
2021/05/01 11:28:14;;;;;;;9.80;8.90;;;16.00;99.90;;;;;;5112996;28;20298;-56
2021/05/01 11:30:42;;;;;;;9.27;8.48;;;15.90;99.90;;;;;;5113277;28;20282;-54
2021/05/01 11:33:09;;;;;;;10.45;9.48;;;15.90;99.90;;;;;;5112878;28;20290;-55
2021/05/01 11:35:37;;;;;;;8.00;7.30;;;15.80;99.90;;;;;;5112994;28;20205;-55
2021/05/01 11:38:05;;;;;;;9.13;8.23;;;16.00;99.90;;;;;;5109769;28;20508;-55
2021/05/01 11:40:33;;;;;;;9.13;8.32;;;16.20;99.90;;;;;;5092077;28;20208;-54
2021/05/01 11:43:02;;;;;;;8.82;8.10;;;16.30;99.90;;;;;;5092674;28;20291;-55
2021/05/01 11:45:34;;;;;;;7.80;7.10;;;16.30;99.90;;;;;;5092604;28;20218;-54
2021/05/01 11:48:04;;;;;;;8.60;7.80;;;16.30;99.90;;;;;;5092677;28;20190;-52
2021/05/01 11:50:32;;;;;;;7.00;6.50;;;16.30;99.90;;;;;;5092575;28;20184;-54
2021/05/01 11:53:21;;;;;;;8.82;7.90;;;16.60;99.90;;;;;;5092395;28;20298;-56
2021/05/01 11:55:54;;;;;;;8.88;8.07;;;16.80;99.90;;;;;;5092631;28;20267;-56
2021/05/01 11:58:31;;;;;;;8.43;7.63;;;16.80;99.90;;;;;;5092091;28;20540;-57
2021/05/01 12:01:15;;;;;;;8.30;7.60;;;16.90;99.90;;;;;;5091999;28;20628;-56
2021/05/01 12:03:43;;;;;;;7.28;6.68;;;16.80;99.90;;;;;;5092414;28;20194;-58
2021/05/01 12:06:18;;;;;;;9.00;8.20;;;16.80;99.90;;;;;;5092131;28;20234;-57
2021/05/01 12:08:45;;;;;;;8.80;8.00;;;16.90;99.90;;;;;;5092431;28;20481;-54
2021/05/01 12:11:16;;;;;;;8.30;7.55;;;16.80;99.90;;;;;;5093771;28;20238;-57
2021/05/01 12:13:46;;;;;;;8.85;8.02;;;16.80;99.90;;;;;;5096196;28;20216;-55
2021/05/01 12:16:18;;;;;;;8.90;8.20;;;16.90;99.90;;;;;;5095789;28;20691;-55
2021/05/01 12:18:47;;;;;;;8.45;7.75;;;16.70;99.90;;;;;;5096136;28;20275;-53
2021/05/01 12:21:18;;;;;;;9.45;8.55;;;16.50;99.90;;;;;;5096046;28;20200;-57
2021/05/01 12:23:46;;;;;;;9.60;8.80;;;16.30;99.90;;;;;;5096182;28;20236;-58
2021/05/01 12:26:38;;;;;;;9.50;8.70;;;16.40;99.90;;;;;;5095861;28;20315;-58
2021/05/01 12:29:28;;;;;;;8.07;7.38;;;16.20;99.90;;;;;;5095879;28;20232;-57
2021/05/01 12:31:56;;;;;;;9.20;8.40;;;16.50;99.90;;;;;;5095764;28;20238;-57
2021/05/01 12:34:57;;;;;;;9.45;8.57;;;16.70;99.90;;;;;;5095356;28;20251;-57
2021/05/01 12:37:27;;;;;;;9.13;8.32;;;16.60;99.90;;;;;;5099241;28;20282;-55
2021/05/01 12:40:04;;;;;;;10.00;9.10;;;16.80;99.90;;;;;;5116388;28;20291;-58
2021/05/01 12:42:33;;;;;;;10.27;9.38;;;16.80;99.90;;;;;;5115842;28;20218;-58
2021/05/01 12:45:01;;;;;;;8.85;8.13;;;16.80;99.90;;;;;;5115997;28;20204;-55
2021/05/01 12:47:44;;;;;;;9.18;8.38;;;16.80;99.90;;;;;;5115550;28;20219;-56
2021/05/01 12:50:19;;;;;;;8.43;7.57;;;16.90;99.90;;;;;;5115724;28;20203;-55